Time;durP1;ratioP1;P1;durP2;ratioP2;P2;SDS_P1;SDS_P2;PMS_P1;PMS_P2;Temp;Humidity;BMP_temperature;BMP_pressure;BME280_temperature;BME280_humidity;BME280_pressure;Samples;Min_cycle;Max_cycle;Signal;HPM_P1;HPM_P2
2022/02/16 00:02:10;;;;;;;1.15;0.20;;;12.80;91.00;;;;;;5088723;28;20024;-70
2022/02/16 00:04:37;;;;;;;0.38;0.15;;;12.80;90.90;;;;;;5094911;28;20016;-70
2022/02/16 00:07:03;;;;;;;0.38;0.20;;;12.80;91.00;;;;;;5093894;28;20028;-71
2022/02/16 00:09:29;;;;;;;0.68;0.22;;;12.80;90.80;;;;;;5088788;28;20059;-70
2022/02/16 00:11:55;;;;;;;0.25;0.10;;;12.80;91.10;;;;;;5091104;28;20455;-71
2022/02/16 00:14:21;;;;;;;0.43;0.20;;;12.80;91.00;;;;;;5089393;28;20052;-71
2022/02/16 00:16:46;;;;;;;0.73;0.20;;;12.80;91.20;;;;;;5093677;28;20024;-72
2022/02/16 00:19:12;;;;;;;0.55;0.20;;;12.80;91.20;;;;;;5077991;28;20085;-71
2022/02/16 00:21:37;;;;;;;0.17;0.10;;;12.90;91.00;;;;;;5091334;28;20034;-71
2022/02/16 00:24:03;;;;;;;0.40;0.20;;;12.80;91.20;;;;;;5070276;28;20035;-71
2022/02/16 00:26:29;;;;;;;0.80;0.30;;;12.90;91.20;;;;;;5088674;28;20051;-72
2022/02/16 00:28:55;;;;;;;0.63;0.20;;;12.90;91.30;;;;;;5095025;28;20489;-71
2022/02/16 00:31:20;;;;;;;0.08;0.08;;;12.90;91.30;;;;;;5075622;28;20473;-71
2022/02/16 00:33:46;;;;;;;0.68;0.20;;;12.90;91.10;;;;;;5093071;28;20040;-72
2022/02/16 00:36:11;;;;;;;1.65;0.10;;;12.90;91.60;;;;;;5091807;28;20023;-72
2022/02/16 00:38:37;;;;;;;0.50;0.22;;;12.90;91.20;;;;;;5088374;28;20053;-72
2022/02/16 00:41:06;;;;;;;0.28;0.10;;;12.90;91.20;;;;;;5092663;28;20149;-72
2022/02/16 00:43:32;;;;;;;0.70;0.20;;;12.90;91.10;;;;;;5093515;28;20495;-72
2022/02/16 00:45:58;;;;;;;0.70;0.20;;;13.00;91.40;;;;;;5098489;28;20063;-71
2022/02/16 00:48:23;;;;;;;0.70;0.20;;;13.00;91.40;;;;;;5099519;28;20058;-71
2022/02/16 00:50:49;;;;;;;0.30;0.10;;;13.00;91.20;;;;;;5076409;28;20031;-71
2022/02/16 00:53:14;;;;;;;1.17;0.15;;;13.00;91.30;;;;;;5090153;28;20103;-71
2022/02/16 00:55:40;;;;;;;0.47;0.15;;;13.00;91.30;;;;;;5105006;28;20023;-72
2022/02/16 00:58:06;;;;;;;0.68;0.10;;;13.00;91.30;;;;;;5095304;28;20046;-71
2022/02/16 01:00:33;;;;;;;0.20;0.10;;;13.00;91.30;;;;;;5076475;28;20031;-70
2022/02/16 01:02:58;;;;;;;0.25;0.10;;;13.00;91.50;;;;;;5092891;28;20015;-71
2022/02/16 01:05:24;;;;;;;0.50;0.10;;;13.00;91.90;;;;;;5087441;28;20035;-71
2022/02/16 01:07:50;;;;;;;0.68;0.28;;;13.00;91.70;;;;;;5093748;28;20082;-70
2022/02/16 01:10:16;;;;;;;0.60;0.28;;;13.00;91.40;;;;;;5090320;28;20540;-70
2022/02/16 01:12:42;;;;;;;0.43;0.20;;;13.00;91.40;;;;;;5095278;28;20023;-70
2022/02/16 01:15:08;;;;;;;0.80;0.30;;;13.00;91.40;;;;;;5098180;28;20508;-70
2022/02/16 01:17:33;;;;;;;1.13;0.22;;;13.10;91.40;;;;;;5087292;28;20032;-70
2022/02/16 01:19:59;;;;;;;0.95;0.22;;;13.10;91.40;;;;;;5093337;28;20391;-70
2022/02/16 01:22:25;;;;;;;1.10;0.20;;;13.10;91.40;;;;;;5091190;28;20476;-70
2022/02/16 01:24:51;;;;;;;1.50;0.20;;;13.10;91.40;;;;;;5094097;28;20437;-70
2022/02/16 01:27:16;;;;;;;0.63;0.30;;;13.10;91.40;;;;;;5098931;28;20023;-70
2022/02/16 01:29:42;;;;;;;1.95;0.25;;;13.10;91.30;;;;;;5086487;28;20108;-70
2022/02/16 01:32:08;;;;;;;1.27;0.20;;;13.20;91.30;;;;;;5086288;28;20120;-70
2022/02/16 01:34:33;;;;;;;1.15;0.32;;;13.20;91.40;;;;;;5091732;28;20036;-70
2022/02/16 01:36:59;;;;;;;1.85;0.32;;;13.10;91.30;;;;;;5089393;28;20024;-69
2022/02/16 01:39:25;;;;;;;1.98;0.40;;;13.10;91.30;;;;;;5090665;28;20567;-69
2022/02/16 01:41:53;;;;;;;1.10;0.30;;;13.20;91.30;;;;;;5087049;28;20019;-70
2022/02/16 01:44:20;;;;;;;1.15;0.30;;;13.20;91.30;;;;;;5100874;28;20080;-69
2022/02/16 01:46:50;;;;;;;1.60;0.43;;;13.20;91.80;;;;;;5093240;28;20065;-69
2022/02/16 01:49:16;;;;;;;2.22;0.60;;;13.20;91.30;;;;;;5086496;28;20039;-71
2022/02/16 01:51:41;;;;;;;2.03;0.70;;;13.30;91.40;;;;;;5094611;28;20134;-71
2022/02/16 01:54:09;;;;;;;3.95;0.80;;;13.30;91.20;;;;;;5089134;28;20051;-71
2022/02/16 01:56:35;;;;;;;2.90;0.70;;;13.30;91.20;;;;;;5077121;28;20031;-71
2022/02/16 01:59:01;;;;;;;3.95;0.70;;;13.20;91.40;;;;;;5101322;28;20043;-71
2022/02/16 02:01:27;;;;;;;2.60;0.70;;;13.30;91.10;;;;;;5107950;28;20023;-71
2022/02/16 02:03:52;;;;;;;4.68;1.00;;;13.30;91.30;;;;;;5100373;28;20113;-71
2022/02/16 02:06:18;;;;;;;3.83;0.90;;;13.30;91.20;;;;;;5093803;28;20031;-71
2022/02/16 02:08:44;;;;;;;3.65;0.70;;;13.30;91.40;;;;;;5107119;28;20036;-71
2022/02/16 02:11:09;;;;;;;2.78;0.57;;;13.30;91.30;;;;;;5093985;28;20111;-71
2022/02/16 02:13:35;;;;;;;2.95;0.77;;;13.30;91.30;;;;;;5092549;28;20126;-71
2022/02/16 02:16:01;;;;;;;4.63;0.80;;;13.30;91.20;;;;;;5099720;28;20107;-70
2022/02/16 02:18:26;;;;;;;2.88;0.63;;;13.30;91.20;;;;;;5093930;28;20028;-71
2022/02/16 02:20:52;;;;;;;3.67;0.75;;;13.40;91.30;;;;;;5092277;28;20024;-71
2022/02/16 02:23:18;;;;;;;2.50;0.60;;;13.40;91.30;;;;;;5092594;28;20049;-71
2022/02/16 02:25:43;;;;;;;3.35;0.60;;;13.40;91.50;;;;;;5097176;28;20024;-71
2022/02/16 02:28:09;;;;;;;3.60;0.68;;;13.40;91.20;;;;;;5095441;28;20489;-71
2022/02/16 02:30:35;;;;;;;3.40;0.55;;;13.40;91.30;;;;;;5093914;28;20024;-71
2022/02/16 02:33:00;;;;;;;1.98;0.63;;;13.40;91.30;;;;;;5093168;28;20049;-70
2022/02/16 02:35:26;;;;;;;3.58;0.70;;;13.40;91.30;;;;;;5087446;28;20069;-71
2022/02/16 02:37:52;;;;;;;2.25;0.50;;;13.50;91.40;;;;;;5096168;28;20035;-70
2022/02/16 02:40:17;;;;;;;4.32;0.75;;;13.40;91.30;;;;;;5093545;28;20074;-70
2022/02/16 02:42:43;;;;;;;2.30;0.60;;;13.40;91.30;;;;;;5092836;28;20032;-70
2022/02/16 02:45:10;;;;;;;2.65;0.65;;;13.50;91.30;;;;;;5093328;28;20075;-70
2022/02/16 02:47:36;;;;;;;2.25;0.50;;;13.50;91.30;;;;;;5091117;28;20084;-70
2022/02/16 02:50:03;;;;;;;1.63;0.52;;;13.50;91.40;;;;;;5078194;28;20032;-70
2022/02/16 02:52:31;;;;;;;2.20;0.50;;;13.50;91.40;;;;;;5093854;28;20020;-70
2022/02/16 02:54:57;;;;;;;3.13;1.00;;;13.50;91.20;;;;;;5092638;28;20545;-71
2022/02/16 02:57:22;;;;;;;1.30;0.32;;;13.50;91.20;;;;;;5081100;28;20054;-71
2022/02/16 02:59:48;;;;;;;2.63;0.43;;;13.50;91.30;;;;;;5091952;28;20028;-71
2022/02/16 03:02:13;;;;;;;1.88;0.40;;;13.50;91.30;;;;;;5092540;28;20027;-70
2022/02/16 03:04:39;;;;;;;1.85;0.40;;;13.50;91.40;;;;;;5095401;28;20656;-71
2022/02/16 03:07:05;;;;;;;1.50;0.40;;;13.50;91.20;;;;;;5099270;28;20032;-71
2022/02/16 03:09:30;;;;;;;1.15;0.30;;;13.50;91.30;;;;;;5102223;28;20038;-71
2022/02/16 03:11:56;;;;;;;1.77;0.30;;;13.50;91.40;;;;;;5091627;28;20035;-71
2022/02/16 03:14:21;;;;;;;1.25;0.40;;;13.50;91.40;;;;;;5075915;28;20123;-71
2022/02/16 03:16:47;;;;;;;1.63;0.22;;;13.50;91.40;;;;;;5094866;28;20020;-71
2022/02/16 03:19:13;;;;;;;1.08;0.28;;;13.60;91.50;;;;;;5098114;28;20028;-71
2022/02/16 03:21:38;;;;;;;1.98;0.50;;;13.60;91.40;;;;;;5096037;28;20069;-70
2022/02/16 03:24:06;;;;;;;0.70;0.20;;;13.60;91.30;;;;;;5091807;28;20027;-70
2022/02/16 03:26:32;;;;;;;1.40;0.32;;;13.50;91.40;;;;;;5089214;28;20100;-70
2022/02/16 03:28:57;;;;;;;1.63;0.40;;;13.50;91.30;;;;;;5094783;28;20111;-70
2022/02/16 03:31:23;;;;;;;0.80;0.30;;;13.50;91.20;;;;;;5091770;28;20101;-71
2022/02/16 03:33:49;;;;;;;1.60;0.38;;;13.60;91.40;;;;;;5092281;28;20491;-71
2022/02/16 03:36:14;;;;;;;2.15;0.40;;;13.60;91.50;;;;;;5088582;28;20031;-71
2022/02/16 03:38:40;;;;;;;1.40;0.35;;;13.60;91.40;;;;;;5090733;28;20020;-72
2022/02/16 03:41:06;;;;;;;1.50;0.40;;;13.60;91.40;;;;;;5092231;28;20039;-72
2022/02/16 03:43:32;;;;;;;1.75;0.30;;;13.60;91.40;;;;;;5077379;28;20032;-71
2022/02/16 03:45:57;;;;;;;1.40;0.43;;;13.60;91.40;;;;;;5089706;28;20020;-71
2022/02/16 03:48:23;;;;;;;1.15;0.25;;;13.60;91.50;;;;;;5091385;28;20028;-72
2022/02/16 03:50:48;;;;;;;3.00;0.47;;;13.60;91.40;;;;;;5090367;28;20024;-72
2022/02/16 03:53:16;;;;;;;0.75;0.40;;;13.60;91.40;;;;;;5091052;28;20028;-71
2022/02/16 03:55:42;;;;;;;1.55;0.20;;;13.60;91.40;;;;;;5092742;28;20031;-72
2022/02/16 03:58:07;;;;;;;1.17;0.40;;;13.60;91.60;;;;;;5091248;28;20032;-72
2022/02/16 04:00:33;;;;;;;1.52;0.40;;;13.60;91.60;;;;;;5074155;28;20107;-72
2022/02/16 04:03:04;;;;;;;1.95;0.40;;;13.60;91.60;;;;;;5090273;28;20031;-71
2022/02/16 04:05:29;;;;;;;3.25;0.47;;;13.60;91.60;;;;;;5077189;28;20058;-72
2022/02/16 04:07:55;;;;;;;1.55;0.30;;;13.60;91.50;;;;;;5095038;28;20105;-72
2022/02/16 04:10:20;;;;;;;1.38;0.35;;;13.60;91.60;;;;;;5077294;28;20558;-72
2022/02/16 04:12:46;;;;;;;2.25;0.47;;;13.60;91.80;;;;;;5091019;28;20032;-72
2022/02/16 04:15:14;;;;;;;1.02;0.35;;;13.60;91.60;;;;;;5087237;28;20117;-72
2022/02/16 04:17:41;;;;;;;1.55;0.30;;;13.60;91.80;;;;;;5087790;28;20031;-72
2022/02/16 04:20:08;;;;;;;2.83;0.38;;;13.60;91.80;;;;;;5091613;28;20039;-72
2022/02/16 04:22:33;;;;;;;2.10;0.40;;;13.60;91.80;;;;;;5073804;28;20032;-72
2022/02/16 04:24:59;;;;;;;1.98;0.50;;;13.60;92.10;;;;;;5090807;28;20407;-71
2022/02/16 04:27:24;;;;;;;1.40;0.30;;;13.60;91.90;;;;;;5091430;28;20024;-72
2022/02/16 04:29:51;;;;;;;1.63;0.28;;;13.60;91.90;;;;;;5089291;28;20167;-71
2022/02/16 04:32:17;;;;;;;2.55;0.38;;;13.70;91.80;;;;;;5104397;28;20024;-71
2022/02/16 04:34:42;;;;;;;1.25;0.32;;;13.60;91.70;;;;;;5102024;28;20479;-72
2022/02/16 04:37:08;;;;;;;1.98;0.40;;;13.60;91.90;;;;;;5090511;28;20043;-72
2022/02/16 04:39:33;;;;;;;1.77;0.40;;;13.60;92.00;;;;;;5090635;28;20119;-71
2022/02/16 04:41:59;;;;;;;1.67;0.40;;;13.60;92.00;;;;;;5090579;28;20125;-72
2022/02/16 04:44:25;;;;;;;1.60;0.30;;;13.60;92.00;;;;;;5087047;28;20580;-72
2022/02/16 04:46:50;;;;;;;1.33;0.30;;;13.60;92.10;;;;;;5088782;28;20020;-72
2022/02/16 04:49:16;;;;;;;2.17;0.40;;;13.60;92.10;;;;;;5090855;28;20027;-72
2022/02/16 04:51:41;;;;;;;0.93;0.20;;;13.60;92.10;;;;;;5090436;28;20688;-72
2022/02/16 04:54:07;;;;;;;1.83;0.57;;;13.60;92.10;;;;;;5090264;28;20054;-72
2022/02/16 04:56:33;;;;;;;1.48;0.40;;;13.60;92.10;;;;;;5086412;28;20105;-72
2022/02/16 04:58:58;;;;;;;1.30;0.50;;;13.60;92.10;;;;;;5093420;28;20020;-72
2022/02/16 05:01:24;;;;;;;1.30;0.30;;;13.60;91.90;;;;;;5090499;28;20028;-72
2022/02/16 05:03:50;;;;;;;0.85;0.30;;;13.70;92.10;;;;;;5090617;28;20498;-71
2022/02/16 05:06:15;;;;;;;0.73;0.25;;;13.70;92.10;;;;;;5090524;28;20043;-71
2022/02/16 05:08:41;;;;;;;2.65;0.40;;;13.70;92.00;;;;;;5085521;28;20095;-71
2022/02/16 05:11:06;;;;;;;1.20;0.50;;;13.70;92.00;;;;;;5104893;28;20104;-71
2022/02/16 05:13:32;;;;;;;2.30;0.50;;;13.70;91.90;;;;;;5089204;28;20130;-72
2022/02/16 05:15:57;;;;;;;2.53;0.50;;;13.70;92.10;;;;;;5091149;28;20048;-71
2022/02/16 05:18:23;;;;;;;1.98;0.50;;;13.70;91.90;;;;;;5090722;28;20034;-70
2022/02/16 05:20:49;;;;;;;1.60;0.32;;;13.70;92.00;;;;;;5101301;28;20029;-71
2022/02/16 05:23:14;;;;;;;1.00;0.40;;;13.70;91.90;;;;;;5089747;28;20020;-71
2022/02/16 05:25:40;;;;;;;2.13;0.52;;;13.70;91.90;;;;;;5091380;28;20031;-72
2022/02/16 05:28:05;;;;;;;2.22;0.45;;;13.70;91.80;;;;;;5092567;28;20055;-72
2022/02/16 05:30:31;;;;;;;1.02;0.40;;;13.70;91.90;;;;;;5090174;28;20036;-72
2022/02/16 05:32:56;;;;;;;1.13;0.40;;;13.60;91.80;;;;;;5092441;28;20106;-72
2022/02/16 05:35:22;;;;;;;1.65;0.60;;;13.70;91.90;;;;;;5091162;28;20043;-72
2022/02/16 05:37:48;;;;;;;2.10;0.47;;;13.70;91.70;;;;;;5095294;28;20077;-72
2022/02/16 05:40:13;;;;;;;2.15;0.50;;;13.60;91.70;;;;;;5103352;28;20062;-72
2022/02/16 05:42:39;;;;;;;2.53;0.85;;;13.70;91.90;;;;;;5101420;28;20173;-71
2022/02/16 05:45:05;;;;;;;2.85;0.60;;;13.60;91.60;;;;;;5101304;28;20024;-72
2022/02/16 05:47:30;;;;;;;1.88;0.50;;;13.60;91.70;;;;;;5090979;28;20507;-72
2022/02/16 05:49:56;;;;;;;4.03;0.60;;;13.60;91.80;;;;;;5098432;28;20028;-72
2022/02/16 05:52:22;;;;;;;1.67;0.40;;;13.60;91.80;;;;;;5093508;28;20480;-72
2022/02/16 05:54:47;;;;;;;2.40;0.50;;;13.60;91.80;;;;;;5094134;28;20107;-72
2022/02/16 05:57:13;;;;;;;2.00;0.45;;;13.60;92.00;;;;;;5093751;28;20024;-72
2022/02/16 05:59:39;;;;;;;2.55;0.60;;;13.60;91.80;;;;;;5091238;28;20401;-70
2022/02/16 06:02:06;;;;;;;1.85;0.45;;;13.60;91.90;;;;;;5094914;28;20024;-70
2022/02/16 06:04:32;;;;;;;3.55;0.70;;;13.60;91.90;;;;;;5096538;28;20487;-71
2022/02/16 06:06:59;;;;;;;3.72;0.60;;;13.60;92.00;;;;;;5094830;28;20579;-71
2022/02/16 06:09:25;;;;;;;2.17;0.65;;;13.60;92.00;;;;;;5094499;28;20084;-71
2022/02/16 06:11:51;;;;;;;4.80;0.90;;;13.60;91.90;;;;;;5105438;28;20024;-70
2022/02/16 06:14:16;;;;;;;3.42;0.63;;;13.60;92.00;;;;;;5092798;28;20123;-70
2022/02/16 06:16:42;;;;;;;2.92;0.70;;;13.60;92.10;;;;;;5095203;28;20043;-70
2022/02/16 06:19:08;;;;;;;2.50;0.68;;;13.60;92.00;;;;;;5088538;28;20035;-72
2022/02/16 06:21:33;;;;;;;2.25;0.60;;;13.60;92.10;;;;;;5093421;28;20630;-71
2022/02/16 06:23:59;;;;;;;3.80;0.80;;;13.70;92.00;;;;;;5092896;28;20019;-71
2022/02/16 06:26:24;;;;;;;2.85;0.55;;;13.70;92.00;;;;;;5089609;28;20401;-71
2022/02/16 06:28:50;;;;;;;1.90;0.70;;;13.70;91.90;;;;;;5095349;28;20031;-71
2022/02/16 06:31:16;;;;;;;3.17;0.90;;;13.70;92.00;;;;;;5099269;28;20042;-70
2022/02/16 06:33:41;;;;;;;3.25;0.80;;;13.70;92.10;;;;;;5094289;28;20028;-70
2022/02/16 06:36:07;;;;;;;3.95;0.85;;;13.70;91.90;;;;;;5092928;28;20032;-71
2022/02/16 06:38:32;;;;;;;4.22;0.90;;;13.70;92.10;;;;;;5089518;28;20032;-72
2022/02/16 06:40:58;;;;;;;4.95;0.80;;;13.70;92.00;;;;;;5095852;28;20028;-72
2022/02/16 06:43:24;;;;;;;3.40;0.90;;;13.70;91.90;;;;;;5092500;28;20020;-71
2022/02/16 06:45:50;;;;;;;4.40;0.80;;;13.80;92.00;;;;;;5095213;28;20020;-71
2022/02/16 06:48:15;;;;;;;3.67;1.00;;;13.70;91.80;;;;;;5083957;28;20028;-72
2022/02/16 06:50:41;;;;;;;3.60;0.90;;;13.70;91.80;;;;;;5092132;28;20408;-71
2022/02/16 06:53:07;;;;;;;2.83;0.85;;;13.70;91.90;;;;;;5088892;28;20112;-72
2022/02/16 06:55:33;;;;;;;4.40;1.05;;;13.70;91.90;;;;;;5077978;28;20048;-71
2022/02/16 06:57:59;;;;;;;4.90;0.85;;;13.80;91.90;;;;;;5094611;28;20501;-72
2022/02/16 07:00:25;;;;;;;4.70;0.80;;;13.80;91.90;;;;;;5084495;28;20442;-71
2022/02/16 07:02:51;;;;;;;3.55;0.90;;;13.80;91.80;;;;;;5101534;28;20024;-72
2022/02/16 07:05:16;;;;;;;4.15;1.20;;;13.80;91.80;;;;;;5106086;28;20135;-73
2022/02/16 07:07:42;;;;;;;2.33;0.75;;;13.80;91.90;;;;;;5094065;28;20016;-71
2022/02/16 07:10:09;;;;;;;3.30;0.70;;;13.80;91.80;;;;;;5092719;28;20062;-72
2022/02/16 07:12:38;;;;;;;3.83;0.85;;;13.80;91.70;;;;;;5094007;28;20024;-71
2022/02/16 07:15:11;;;;;;;4.07;0.68;;;13.80;91.90;;;;;;5094699;28;20498;-72
2022/02/16 07:17:39;;;;;;;3.00;0.70;;;13.80;91.70;;;;;;5088309;28;20020;-72
2022/02/16 07:20:09;;;;;;;1.77;0.80;;;13.80;91.80;;;;;;5093750;28;20898;-70
2022/02/16 07:22:44;;;;;;;2.95;0.70;;;13.80;91.90;;;;;;5094364;28;20077;-67
2022/02/16 07:25:11;;;;;;;2.88;0.57;;;13.80;91.90;;;;;;5092396;28;20024;-70
2022/02/16 07:27:36;;;;;;;2.33;1.05;;;13.80;92.10;;;;;;5094617;28;20553;-67
2022/02/16 07:30:04;;;;;;;3.22;0.77;;;13.90;92.00;;;;;;5104128;28;20035;-67
2022/02/16 07:32:30;;;;;;;4.05;1.15;;;13.90;91.90;;;;;;5087528;28;20089;-66
2022/02/16 07:34:56;;;;;;;3.47;0.65;;;13.90;92.30;;;;;;5096400;28;20028;-70
2022/02/16 07:37:21;;;;;;;1.52;0.65;;;14.00;92.20;;;;;;5092106;28;20028;-69
2022/02/16 07:39:47;;;;;;;2.28;0.60;;;14.10;92.00;;;;;;5092125;28;20111;-69
2022/02/16 07:42:13;;;;;;;2.17;0.60;;;14.10;91.90;;;;;;5103962;28;20395;-67
2022/02/16 07:44:39;;;;;;;3.10;0.93;;;14.10;91.70;;;;;;5085733;28;20025;-67
2022/02/16 07:47:09;;;;;;;2.85;0.90;;;14.00;91.60;;;;;;5093234;28;20032;-67
2022/02/16 07:49:35;;;;;;;1.65;0.60;;;14.00;91.70;;;;;;5080109;28;20036;-67
2022/02/16 07:52:01;;;;;;;2.22;0.60;;;14.00;91.70;;;;;;5094921;28;20427;-67
2022/02/16 07:54:26;;;;;;;1.98;0.57;;;14.00;91.70;;;;;;5092332;28;20080;-67
2022/02/16 07:56:52;;;;;;;4.00;0.80;;;14.00;91.80;;;;;;5103027;28;20023;-67
2022/02/16 07:59:18;;;;;;;1.92;0.60;;;14.00;91.80;;;;;;5096438;28;20039;-68
2022/02/16 08:01:43;;;;;;;1.90;0.52;;;14.00;91.70;;;;;;5100943;28;20031;-67
2022/02/16 08:04:18;;;;;;;2.25;0.65;;;14.00;91.80;;;;;;5095112;28;20035;-67
2022/02/16 08:06:45;;;;;;;1.33;0.50;;;14.00;91.90;;;;;;5097614;28;20027;-67
2022/02/16 08:09:11;;;;;;;1.25;0.50;;;14.00;91.80;;;;;;5091490;28;20032;-67
2022/02/16 08:11:38;;;;;;;2.47;0.65;;;14.00;91.80;;;;;;5088260;28;20289;-67
2022/02/16 08:14:04;;;;;;;3.00;0.73;;;14.00;91.80;;;;;;5093616;28;20115;-67
2022/02/16 08:16:31;;;;;;;3.05;0.60;;;14.00;91.90;;;;;;5101599;28;20035;-67
2022/02/16 08:18:56;;;;;;;1.35;0.60;;;14.00;91.80;;;;;;5095702;28;20101;-67
2022/02/16 08:21:22;;;;;;;3.33;1.17;;;13.90;91.90;;;;;;5091547;28;20071;-67
2022/02/16 08:23:48;;;;;;;2.83;1.23;;;14.00;92.40;;;;;;5088026;28;20394;-67
2022/02/16 08:26:14;;;;;;;1.67;0.80;;;14.00;92.10;;;;;;5090348;28;20028;-67
2022/02/16 08:28:39;;;;;;;1.80;0.60;;;14.10;92.20;;;;;;5094584;28;20036;-67
2022/02/16 08:31:05;;;;;;;3.00;0.52;;;14.10;92.00;;;;;;5091120;28;20107;-67
2022/02/16 08:33:31;;;;;;;3.72;0.70;;;14.10;91.80;;;;;;5091361;28;20024;-67
2022/02/16 08:35:56;;;;;;;2.38;0.73;;;14.10;91.80;;;;;;5090639;28;20027;-67
2022/02/16 08:38:22;;;;;;;2.97;0.82;;;14.10;91.90;;;;;;5087750;28;20513;-67
2022/02/16 08:40:48;;;;;;;2.15;0.57;;;14.10;92.30;;;;;;5096624;28;20137;-67
2022/02/16 08:43:14;;;;;;;2.08;0.70;;;14.10;91.90;;;;;;5079085;28;20016;-67
2022/02/16 08:45:42;;;;;;;2.40;0.90;;;14.10;92.10;;;;;;5064536;28;20028;-67
2022/02/16 08:48:08;;;;;;;3.20;0.60;;;14.10;91.90;;;;;;5083635;28;20511;-67
2022/02/16 08:50:34;;;;;;;3.00;0.73;;;14.10;92.00;;;;;;5102739;28;20040;-67
2022/02/16 08:52:59;;;;;;;1.42;0.73;;;14.10;92.00;;;;;;5093946;28;20069;-67
2022/02/16 08:55:25;;;;;;;1.58;0.60;;;14.10;92.00;;;;;;5091159;28;20075;-67
2022/02/16 08:57:51;;;;;;;1.73;0.50;;;14.20;92.20;;;;;;5090913;28;20048;-67
2022/02/16 09:00:17;;;;;;;0.68;0.47;;;14.10;92.00;;;;;;5090716;28;20713;-67
2022/02/16 09:02:42;;;;;;;0.85;0.40;;;14.20;92.00;;;;;;5088153;28;20013;-67
2022/02/16 09:05:08;;;;;;;1.30;0.50;;;14.20;92.00;;;;;;5073491;28;20080;-67
2022/02/16 09:07:34;;;;;;;0.95;0.40;;;14.20;91.90;;;;;;5092209;28;20701;-67
2022/02/16 09:10:02;;;;;;;1.85;0.63;;;14.20;92.10;;;;;;5093128;28;20040;-67
2022/02/16 09:12:29;;;;;;;1.05;0.50;;;14.20;92.00;;;;;;5089677;28;20024;-67
2022/02/16 09:14:55;;;;;;;1.27;0.50;;;14.30;92.20;;;;;;5091174;28;20043;-67
2022/02/16 09:17:21;;;;;;;1.40;0.65;;;14.30;92.10;;;;;;5088841;28;20020;-67
2022/02/16 09:19:46;;;;;;;2.78;0.70;;;14.30;92.00;;;;;;5086289;28;20740;-67
2022/02/16 09:22:13;;;;;;;2.22;0.70;;;14.30;91.90;;;;;;5075449;28;20496;-67
2022/02/16 09:24:39;;;;;;;0.98;0.40;;;14.30;91.90;;;;;;5089464;28;20054;-67
2022/02/16 09:27:05;;;;;;;1.25;0.50;;;14.30;91.80;;;;;;5090672;28;20499;-67
2022/02/16 09:29:31;;;;;;;1.63;0.40;;;14.30;91.90;;;;;;5085831;28;20040;-67
2022/02/16 09:31:56;;;;;;;1.52;0.50;;;14.30;91.80;;;;;;5094198;28;20095;-67
2022/02/16 09:34:23;;;;;;;1.10;0.50;;;14.30;91.90;;;;;;5090313;28;20051;-67
2022/02/16 09:36:48;;;;;;;1.38;0.65;;;14.30;91.90;;;;;;5078613;28;20089;-67
2022/02/16 09:39:14;;;;;;;1.42;0.63;;;14.40;92.00;;;;;;5100800;28;20066;-67
2022/02/16 09:41:43;;;;;;;1.48;0.52;;;14.40;92.10;;;;;;5087480;28;20070;-67
2022/02/16 09:44:25;;;;;;;1.40;0.50;;;14.40;92.10;;;;;;5090969;28;20024;-66
2022/02/16 09:46:51;;;;;;;0.90;0.40;;;14.40;92.00;;;;;;5093522;28;20020;-67
2022/02/16 09:49:17;;;;;;;1.27;0.55;;;14.50;91.90;;;;;;5099912;28;20105;-67
2022/02/16 09:51:43;;;;;;;3.28;0.68;;;14.50;91.90;;;;;;5096474;28;20024;-67
2022/02/16 09:54:10;;;;;;;2.53;0.40;;;14.50;91.80;;;;;;5091854;28;20028;-67
2022/02/16 09:56:40;;;;;;;2.33;0.40;;;14.50;91.90;;;;;;5086567;28;20028;-67
2022/02/16 09:59:06;;;;;;;1.52;0.55;;;14.50;91.90;;;;;;5091578;28;20052;-67
2022/02/16 10:01:51;;;;;;;1.55;0.50;;;14.60;91.70;;;;;;5093022;28;20055;-67
2022/02/16 10:04:17;;;;;;;3.42;0.45;;;14.50;91.80;;;;;;5090507;28;20032;-67
2022/02/16 10:06:48;;;;;;;2.45;0.30;;;14.60;91.80;;;;;;5096458;28;20072;-67
2022/02/16 10:09:40;;;;;;;0.32;0.22;;;14.60;91.70;;;;;;5101304;28;20091;-66
2022/02/16 10:12:07;;;;;;;0.60;0.30;;;14.60;91.70;;;;;;5090151;28;20099;-67
2022/02/16 10:14:35;;;;;;;1.15;0.30;;;14.60;91.90;;;;;;5087863;28;20045;-67
2022/02/16 10:17:22;;;;;;;0.80;0.22;;;14.60;91.90;;;;;;5092787;28;20457;-67
2022/02/16 10:19:52;;;;;;;0.65;0.30;;;14.60;91.80;;;;;;5094875;28;20150;-67
2022/02/16 10:22:20;;;;;;;1.90;0.40;;;14.70;91.70;;;;;;5093673;28;20036;-67
2022/02/16 10:24:47;;;;;;;1.13;0.38;;;14.70;91.90;;;;;;5093586;28;20028;-67
2022/02/16 10:27:14;;;;;;;1.20;0.40;;;14.70;91.70;;;;;;5093566;28;20028;-67
2022/02/16 10:29:41;;;;;;;0.98;0.32;;;14.70;91.90;;;;;;5090140;28;20082;-67
2022/02/16 10:32:08;;;;;;;1.10;0.40;;;14.80;91.80;;;;;;5094556;28;20564;-66
2022/02/16 10:34:57;;;;;;;1.00;0.40;;;14.80;91.80;;;;;;5095139;28;20028;-66
2022/02/16 10:37:40;;;;;;;1.05;0.40;;;14.80;91.60;;;;;;5093474;28;20032;-67
2022/02/16 10:40:14;;;;;;;0.40;0.20;;;14.80;91.60;;;;;;5095614;28;20048;-67
2022/02/16 10:43:00;;;;;;;1.02;0.43;;;14.80;91.70;;;;;;5088749;28;20020;-67
2022/02/16 10:45:31;;;;;;;0.70;0.35;;;14.90;91.70;;;;;;5095124;28;20020;-66
2022/02/16 10:48:04;;;;;;;0.47;0.35;;;14.90;91.70;;;;;;5091720;28;20038;-59
2022/02/16 10:50:34;;;;;;;;;;;15.00;91.90;;;;;;5073605;28;20032;-59
2022/02/16 10:53:03;;;;;;;1.33;0.30;;;15.00;91.90;;;;;;5095869;28;19911;-67
2022/02/16 10:55:49;;;;;;;1.23;0.40;;;15.10;91.60;;;;;;5093531;28;20471;-69
2022/02/16 10:58:25;;;;;;;1.42;0.30;;;15.10;91.40;;;;;;5092952;28;20035;-69
2022/02/16 11:00:56;;;;;;;1.60;0.30;;;15.10;91.40;;;;;;5092992;28;20027;-69
2022/02/16 11:03:29;;;;;;;1.08;0.60;;;15.10;91.30;;;;;;5107035;28;20023;-68
2022/02/16 11:05:56;;;;;;;1.00;0.60;;;15.10;91.30;;;;;;5095760;28;20115;-68
2022/02/16 11:08:25;;;;;;;1.80;0.40;;;15.10;91.30;;;;;;5090322;28;20031;-68
2022/02/16 11:10:51;;;;;;;0.40;0.30;;;15.10;91.30;;;;;;5095708;28;20132;-68
2022/02/16 11:13:21;;;;;;;1.48;0.25;;;15.10;91.20;;;;;;5089622;28;20563;-69
2022/02/16 11:15:48;;;;;;;0.93;0.20;;;15.20;91.30;;;;;;5097385;28;20574;-68
2022/02/16 11:18:17;;;;;;;0.43;0.28;;;15.20;91.10;;;;;;5100652;28;20046;-69
2022/02/16 11:20:44;;;;;;;2.88;0.40;;;15.20;91.00;;;;;;5090244;28;20108;-68
2022/02/16 11:23:13;;;;;;;0.88;0.40;;;15.10;91.10;;;;;;5092568;28;20031;-68
2022/02/16 11:25:44;;;;;;;0.80;0.30;;;15.20;91.20;;;;;;5093336;28;20012;-67
2022/02/16 11:28:11;;;;;;;0.98;0.32;;;15.20;91.10;;;;;;5092863;28;20032;-68
2022/02/16 11:30:47;;;;;;;0.57;0.40;;;15.20;91.10;;;;;;5091373;28;20032;-68
2022/02/16 11:33:17;;;;;;;0.60;0.50;;;15.20;91.10;;;;;;5092264;28;20019;-68
2022/02/16 11:35:47;;;;;;;0.55;0.35;;;15.20;91.10;;;;;;5077265;28;20070;-67
2022/02/16 11:38:15;;;;;;;1.73;0.55;;;15.20;91.20;;;;;;5090565;28;20020;-67
2022/02/16 11:40:47;;;;;;;1.35;0.60;;;15.20;91.10;;;;;;5094936;28;20023;-67
2022/02/16 11:43:15;;;;;;;1.58;0.70;;;15.20;91.20;;;;;;5077719;28;20137;-67
2022/02/16 11:45:48;;;;;;;1.77;0.50;;;15.20;91.10;;;;;;5090693;28;20027;-68
2022/02/16 11:48:32;;;;;;;;;;;15.20;91.10;;;;;;5090789;28;20103;-67
2022/02/16 11:50:58;;;;;;;1.40;0.65;;;15.30;91.10;;;;;;5091694;28;19919;-67
2022/02/16 11:53:28;;;;;;;1.25;0.50;;;15.30;91.20;;;;;;5089108;28;20093;-68
2022/02/16 11:55:53;;;;;;;0.77;0.40;;;15.30;91.00;;;;;;5095416;28;20020;-67
2022/02/16 11:58:22;;;;;;;1.80;0.50;;;15.20;90.90;;;;;;5093029;28;20074;-68
2022/02/16 12:00:58;;;;;;;1.17;0.40;;;15.20;91.00;;;;;;5075162;28;20077;-68
2022/02/16 12:03:31;;;;;;;1.02;0.50;;;15.20;91.10;;;;;;5080816;28;20112;-67
2022/02/16 12:06:10;;;;;;;1.48;0.60;;;15.30;91.10;;;;;;5072323;28;20402;-67
2022/02/16 12:08:48;;;;;;;1.00;0.50;;;15.30;91.00;;;;;;5077468;28;20027;-68
2022/02/16 12:11:20;;;;;;;0.73;0.40;;;15.30;91.00;;;;;;5091078;28;20644;-68
2022/02/16 12:14:02;;;;;;;1.35;0.57;;;15.30;91.00;;;;;;5093457;28;20105;-67
2022/02/16 12:16:30;;;;;;;3.75;2.50;;;15.40;90.90;;;;;;5092834;28;20032;-67
2022/02/16 12:19:00;;;;;;;2.30;0.93;;;15.40;90.90;;;;;;5091490;28;20024;-66
2022/02/16 12:21:50;;;;;;;1.52;0.57;;;15.40;90.90;;;;;;5091271;28;20028;-68
2022/02/16 12:24:19;;;;;;;1.45;0.50;;;15.40;90.90;;;;;;5082526;28;20024;-67
2022/02/16 12:26:50;;;;;;;1.38;0.50;;;15.40;90.70;;;;;;5095373;28;20166;-67
2022/02/16 12:29:22;;;;;;;1.08;0.40;;;15.40;90.70;;;;;;5090162;28;20032;-67
2022/02/16 12:31:50;;;;;;;0.93;0.50;;;15.40;90.70;;;;;;5093859;28;20024;-68
2022/02/16 12:34:19;;;;;;;0.80;0.30;;;15.40;90.90;;;;;;5091294;28;20044;-67
2022/02/16 12:36:46;;;;;;;1.33;0.35;;;15.40;91.20;;;;;;5090947;28;20028;-67
2022/02/16 12:39:13;;;;;;;1.23;0.30;;;15.40;90.80;;;;;;5091557;28;20527;-67
2022/02/16 12:41:40;;;;;;;2.83;0.40;;;15.40;90.90;;;;;;5088184;28;20016;-67
2022/02/16 12:44:09;;;;;;;0.57;0.32;;;15.50;90.90;;;;;;5091658;28;20036;-67
2022/02/16 12:46:49;;;;;;;1.27;0.40;;;15.50;90.80;;;;;;5091799;28;20492;-67
2022/02/16 12:49:21;;;;;;;0.90;0.30;;;15.50;90.80;;;;;;5098960;28;20025;-68